sensor_id;sensor_type;location;lat;lon;timestamp;temperature;humidity
6822;DHT22;3449;48.728;8.968;2024-03-02T00:00:52;4.50;99.90
6822;DHT22;3449;48.728;8.968;2024-03-02T00:03:19;4.50;99.90
6822;DHT22;3449;48.728;8.968;2024-03-02T00:05:51;4.50;99.90
6822;DHT22;3449;48.728;8.968;2024-03-02T00:08:23;4.50;99.90
6822;DHT22;3449;48.728;8.968;2024-03-02T00:10:51;4.40;99.90
6822;DHT22;3449;48.728;8.968;2024-03-02T00:13:20;4.50;99.90
6822;DHT22;3449;48.728;8.968;2024-03-02T00:15:51;4.50;99.90
6822;DHT22;3449;48.728;8.968;2024-03-02T00:18:20;4.50;99.90
6822;DHT22;3449;48.728;8.968;2024-03-02T00:20:47;4.50;99.90
6822;DHT22;3449;48.728;8.968;2024-03-02T00:23:16;4.50;99.90
6822;DHT22;3449;48.728;8.968;2024-03-02T00:25:44;4.60;99.90
6822;DHT22;3449;48.728;8.968;2024-03-02T00:28:16;4.60;99.90
6822;DHT22;3449;48.728;8.968;2024-03-02T00:31:05;4.60;99.90
6822;DHT22;3449;48.728;8.968;2024-03-02T00:33:34;4.60;99.90
6822;DHT22;3449;48.728;8.968;2024-03-02T00:36:01;4.60;99.90
6822;DHT22;3449;48.728;8.968;2024-03-02T00:38:30;4.60;99.90
6822;DHT22;3449;48.728;8.968;2024-03-02T00:40:59;4.60;99.90
6822;DHT22;3449;48.728;8.968;2024-03-02T00:43:47;4.60;99.90
6822;DHT22;3449;48.728;8.968;2024-03-02T00:46:17;4.60;99.90
6822;DHT22;3449;48.728;8.968;2024-03-02T00:48:55;4.60;99.90
6822;DHT22;3449;48.728;8.968;2024-03-02T00:51:22;4.60;99.90
6822;DHT22;3449;48.728;8.968;2024-03-02T00:53:51;4.60;99.90
6822;DHT22;3449;48.728;8.968;2024-03-02T00:56:19;4.60;99.90
6822;DHT22;3449;48.728;8.968;2024-03-02T00:58:46;4.60;99.90
6822;DHT22;3449;48.728;8.968;2024-03-02T01:01:13;4.60;99.90
6822;DHT22;3449;48.728;8.968;2024-03-02T01:03:41;4.50;99.90
6822;DHT22;3449;48.728;8.968;2024-03-02T01:06:09;4.50;99.90
6822;DHT22;3449;48.728;8.968;2024-03-02T01:08:36;4.50;99.90
6822;DHT22;3449;48.728;8.968;2024-03-02T01:11:05;4.60;99.90
6822;DHT22;3449;48.728;8.968;2024-03-02T01:13:32;4.60;99.90
6822;DHT22;3449;48.728;8.968;2024-03-02T01:15:58;4.60;99.90
6822;DHT22;3449;48.728;8.968;2024-03-02T01:18:26;4.60;99.90
6822;DHT22;3449;48.728;8.968;2024-03-02T01:20:53;4.60;99.90
6822;DHT22;3449;48.728;8.968;2024-03-02T01:23:24;4.60;99.90
6822;DHT22;3449;48.728;8.968;2024-03-02T01:25:52;4.60;99.90
6822;DHT22;3449;48.728;8.968;2024-03-02T01:28:20;4.70;99.90
6822;DHT22;3449;48.728;8.968;2024-03-02T01:30:49;4.70;99.90
6822;DHT22;3449;48.728;8.968;2024-03-02T01:33:16;4.70;99.90
6822;DHT22;3449;48.728;8.968;2024-03-02T01:35:43;4.90;99.90
6822;DHT22;3449;48.728;8.968;2024-03-02T01:38:10;4.70;99.90
6822;DHT22;3449;48.728;8.968;2024-03-02T01:40:37;4.70;99.90
6822;DHT22;3449;48.728;8.968;2024-03-02T01:43:05;4.70;99.90
6822;DHT22;3449;48.728;8.968;2024-03-02T01:45:33;4.70;99.90
6822;DHT22;3449;48.728;8.968;2024-03-02T01:48:01;4.70;99.90
6822;DHT22;3449;48.728;8.968;2024-03-02T01:50:29;4.70;99.90
6822;DHT22;3449;48.728;8.968;2024-03-02T01:52:56;4.70;99.90
6822;DHT22;3449;48.728;8.968;2024-03-02T01:55:23;4.70;99.90
6822;DHT22;3449;48.728;8.968;2024-03-02T01:57:50;4.70;99.90
6822;DHT22;3449;48.728;8.968;2024-03-02T02:00:18;4.70;99.90
6822;DHT22;3449;48.728;8.968;2024-03-02T02:02:46;4.70;99.90
6822;DHT22;3449;48.728;8.968;2024-03-02T02:05:14;4.60;99.90
6822;DHT22;3449;48.728;8.968;2024-03-02T02:07:41;4.60;99.90
6822;DHT22;3449;48.728;8.968;2024-03-02T02:10:09;4.60;99.90
6822;DHT22;3449;48.728;8.968;2024-03-02T02:12:36;4.60;99.90
6822;DHT22;3449;48.728;8.968;2024-03-02T02:15:03;4.60;99.90
6822;DHT22;3449;48.728;8.968;2024-03-02T02:17:31;4.50;99.90
6822;DHT22;3449;48.728;8.968;2024-03-02T02:19:59;4.50;99.90
6822;DHT22;3449;48.728;8.968;2024-03-02T02:22:27;4.50;99.90
6822;DHT22;3449;48.728;8.968;2024-03-02T02:24:54;4.40;99.90
6822;DHT22;3449;48.728;8.968;2024-03-02T02:27:21;4.40;99.90
6822;DHT22;3449;48.728;8.968;2024-03-02T02:29:48;4.30;99.90
6822;DHT22;3449;48.728;8.968;2024-03-02T02:32:14;4.30;99.90
6822;DHT22;3449;48.728;8.968;2024-03-02T02:34:41;4.30;99.90
6822;DHT22;3449;48.728;8.968;2024-03-02T02:37:08;4.30;99.90
6822;DHT22;3449;48.728;8.968;2024-03-02T02:39:36;4.20;99.90
6822;DHT22;3449;48.728;8.968;2024-03-02T02:42:03;4.20;99.90
6822;DHT22;3449;48.728;8.968;2024-03-02T02:44:30;4.10;99.90
6822;DHT22;3449;48.728;8.968;2024-03-02T02:46:57;4.10;99.90
6822;DHT22;3449;48.728;8.968;2024-03-02T02:49:24;4.00;99.90
6822;DHT22;3449;48.728;8.968;2024-03-02T02:51:50;4.00;99.90
6822;DHT22;3449;48.728;8.968;2024-03-02T02:54:17;4.00;99.90
6822;DHT22;3449;48.728;8.968;2024-03-02T02:56:45;3.90;99.90
6822;DHT22;3449;48.728;8.968;2024-03-02T02:59:12;3.80;99.90
6822;DHT22;3449;48.728;8.968;2024-03-02T03:01:39;3.80;99.90
6822;DHT22;3449;48.728;8.968;2024-03-02T03:04:06;3.80;99.90
6822;DHT22;3449;48.728;8.968;2024-03-02T03:06:32;3.80;99.90
6822;DHT22;3449;48.728;8.968;2024-03-02T03:08:59;3.80;99.90
6822;DHT22;3449;48.728;8.968;2024-03-02T03:11:26;3.80;99.90
6822;DHT22;3449;48.728;8.968;2024-03-02T03:13:54;3.80;99.90
6822;DHT22;3449;48.728;8.968;2024-03-02T03:16:21;3.70;99.90
6822;DHT22;3449;48.728;8.968;2024-03-02T03:18:48;3.70;99.90
6822;DHT22;3449;48.728;8.968;2024-03-02T03:21:17;3.70;99.90
6822;DHT22;3449;48.728;8.968;2024-03-02T03:23:43;3.60;99.90
6822;DHT22;3449;48.728;8.968;2024-03-02T03:26:10;3.60;99.90
6822;DHT22;3449;48.728;8.968;2024-03-02T03:28:37;3.50;99.90
6822;DHT22;3449;48.728;8.968;2024-03-02T03:31:05;3.50;99.90
6822;DHT22;3449;48.728;8.968;2024-03-02T03:33:32;3.40;99.90
6822;DHT22;3449;48.728;8.968;2024-03-02T03:36:00;3.40;99.90
6822;DHT22;3449;48.728;8.968;2024-03-02T03:38:27;3.40;99.90
6822;DHT22;3449;48.728;8.968;2024-03-02T03:40:54;3.30;99.90
6822;DHT22;3449;48.728;8.968;2024-03-02T03:43:21;3.30;99.90
6822;DHT22;3449;48.728;8.968;2024-03-02T03:45:48;3.30;99.90
6822;DHT22;3449;48.728;8.968;2024-03-02T03:48:16;3.30;99.90
6822;DHT22;3449;48.728;8.968;2024-03-02T03:50:43;3.30;99.90
6822;DHT22;3449;48.728;8.968;2024-03-02T03:53:09;3.30;99.90
6822;DHT22;3449;48.728;8.968;2024-03-02T03:55:36;3.30;99.90
6822;DHT22;3449;48.728;8.968;2024-03-02T03:58:03;3.30;99.90
6822;DHT22;3449;48.728;8.968;2024-03-02T04:00:30;3.30;99.90
6822;DHT22;3449;48.728;8.968;2024-03-02T04:02:57;3.30;99.90
6822;DHT22;3449;48.728;8.968;2024-03-02T04:05:25;3.30;99.90
6822;DHT22;3449;48.728;8.968;2024-03-02T04:07:53;3.30;99.90
6822;DHT22;3449;48.728;8.968;2024-03-02T04:10:19;3.40;99.90
6822;DHT22;3449;48.728;8.968;2024-03-02T04:12:46;3.40;99.90
6822;DHT22;3449;48.728;8.968;2024-03-02T04:15:13;3.40;99.90
6822;DHT22;3449;48.728;8.968;2024-03-02T04:17:40;3.30;99.90
6822;DHT22;3449;48.728;8.968;2024-03-02T04:20:07;3.30;99.90
6822;DHT22;3449;48.728;8.968;2024-03-02T04:22:35;3.40;99.90
6822;DHT22;3449;48.728;8.968;2024-03-02T04:25:03;3.40;99.90
6822;DHT22;3449;48.728;8.968;2024-03-02T04:27:30;3.40;99.90
6822;DHT22;3449;48.728;8.968;2024-03-02T04:29:58;3.40;99.90
6822;DHT22;3449;48.728;8.968;2024-03-02T04:32:26;3.50;99.90
6822;DHT22;3449;48.728;8.968;2024-03-02T04:34:53;3.50;99.90
6822;DHT22;3449;48.728;8.968;2024-03-02T04:37:20;3.40;99.90
6822;DHT22;3449;48.728;8.968;2024-03-02T04:39:48;3.40;99.90
6822;DHT22;3449;48.728;8.968;2024-03-02T04:42:15;3.40;99.90
6822;DHT22;3449;48.728;8.968;2024-03-02T04:44:42;3.40;99.90
6822;DHT22;3449;48.728;8.968;2024-03-02T04:47:09;3.40;99.90
6822;DHT22;3449;48.728;8.968;2024-03-02T04:49:36;3.40;99.90
6822;DHT22;3449;48.728;8.968;2024-03-02T04:52:03;3.40;99.90
6822;DHT22;3449;48.728;8.968;2024-03-02T04:54:30;3.30;99.90
6822;DHT22;3449;48.728;8.968;2024-03-02T04:56:58;3.40;99.90
6822;DHT22;3449;48.728;8.968;2024-03-02T04:59:26;3.30;99.90
6822;DHT22;3449;48.728;8.968;2024-03-02T05:01:53;3.40;99.90
6822;DHT22;3449;48.728;8.968;2024-03-02T05:04:19;3.40;99.90
6822;DHT22;3449;48.728;8.968;2024-03-02T05:06:46;3.50;99.90
6822;DHT22;3449;48.728;8.968;2024-03-02T05:09:18;3.50;99.90
6822;DHT22;3449;48.728;8.968;2024-03-02T05:11:44;3.40;99.90
6822;DHT22;3449;48.728;8.968;2024-03-02T05:14:38;3.40;99.90
6822;DHT22;3449;48.728;8.968;2024-03-02T05:17:05;3.40;99.90
6822;DHT22;3449;48.728;8.968;2024-03-02T05:19:32;3.40;99.90
6822;DHT22;3449;48.728;8.968;2024-03-02T05:21:59;3.40;99.90
6822;DHT22;3449;48.728;8.968;2024-03-02T05:24:26;3.40;99.90
6822;DHT22;3449;48.728;8.968;2024-03-02T05:26:53;3.30;99.90
6822;DHT22;3449;48.728;8.968;2024-03-02T05:29:20;3.30;99.90
6822;DHT22;3449;48.728;8.968;2024-03-02T05:31:49;3.30;99.90
6822;DHT22;3449;48.728;8.968;2024-03-02T05:34:16;3.30;99.90
6822;DHT22;3449;48.728;8.968;2024-03-02T05:36:44;3.20;99.90
6822;DHT22;3449;48.728;8.968;2024-03-02T05:39:10;3.30;99.90
6822;DHT22;3449;48.728;8.968;2024-03-02T05:41:37;3.20;99.90
6822;DHT22;3449;48.728;8.968;2024-03-02T05:44:04;3.20;99.90
6822;DHT22;3449;48.728;8.968;2024-03-02T05:46:31;3.10;99.90
6822;DHT22;3449;48.728;8.968;2024-03-02T05:48:59;3.10;99.90
6822;DHT22;3449;48.728;8.968;2024-03-02T05:51:26;3.10;99.90
6822;DHT22;3449;48.728;8.968;2024-03-02T05:53:53;3.10;99.90
6822;DHT22;3449;48.728;8.968;2024-03-02T05:56:20;3.10;99.90
6822;DHT22;3449;48.728;8.968;2024-03-02T05:58:47;3.10;99.90
6822;DHT22;3449;48.728;8.968;2024-03-02T06:01:26;3.10;99.90
6822;DHT22;3449;48.728;8.968;2024-03-02T06:03:55;3.10;99.90
6822;DHT22;3449;48.728;8.968;2024-03-02T06:06:23;3.10;99.90
6822;DHT22;3449;48.728;8.968;2024-03-02T06:08:50;3.00;99.90
6822;DHT22;3449;48.728;8.968;2024-03-02T06:11:17;3.00;99.90
6822;DHT22;3449;48.728;8.968;2024-03-02T06:13:45;3.10;99.90
6822;DHT22;3449;48.728;8.968;2024-03-02T06:16:12;3.10;99.90
6822;DHT22;3449;48.728;8.968;2024-03-02T06:18:39;3.00;99.90
6822;DHT22;3449;48.728;8.968;2024-03-02T06:21:06;3.10;99.90
6822;DHT22;3449;48.728;8.968;2024-03-02T06:23:34;3.10;99.90
6822;DHT22;3449;48.728;8.968;2024-03-02T06:26:02;3.10;99.90
6822;DHT22;3449;48.728;8.968;2024-03-02T06:28:29;3.10;99.90
6822;DHT22;3449;48.728;8.968;2024-03-02T06:30:56;3.10;99.90
6822;DHT22;3449;48.728;8.968;2024-03-02T06:33:22;3.10;99.90
6822;DHT22;3449;48.728;8.968;2024-03-02T06:35:49;3.20;99.90
6822;DHT22;3449;48.728;8.968;2024-03-02T06:38:16;3.20;99.90
6822;DHT22;3449;48.728;8.968;2024-03-02T06:40:44;3.20;99.90
6822;DHT22;3449;48.728;8.968;2024-03-02T06:43:11;3.20;99.90
6822;DHT22;3449;48.728;8.968;2024-03-02T06:45:38;3.30;99.90
6822;DHT22;3449;48.728;8.968;2024-03-02T06:48:05;3.30;99.90
6822;DHT22;3449;48.728;8.968;2024-03-02T06:50:32;3.30;99.90
6822;DHT22;3449;48.728;8.968;2024-03-02T06:52:59;3.30;99.90
6822;DHT22;3449;48.728;8.968;2024-03-02T06:55:26;3.40;99.90
6822;DHT22;3449;48.728;8.968;2024-03-02T06:57:54;3.40;99.90
6822;DHT22;3449;48.728;8.968;2024-03-02T07:00:21;3.40;99.90
6822;DHT22;3449;48.728;8.968;2024-03-02T07:02:48;3.60;99.90
6822;DHT22;3449;48.728;8.968;2024-03-02T07:05:15;3.50;99.90
6822;DHT22;3449;48.728;8.968;2024-03-02T07:07:42;3.60;99.90
6822;DHT22;3449;48.728;8.968;2024-03-02T07:10:09;3.80;99.90
6822;DHT22;3449;48.728;8.968;2024-03-02T07:12:36;3.70;99.90
6822;DHT22;3449;48.728;8.968;2024-03-02T07:15:05;3.80;99.90
6822;DHT22;3449;48.728;8.968;2024-03-02T07:17:54;3.90;99.90
6822;DHT22;3449;48.728;8.968;2024-03-02T07:20:21;3.80;99.90
6822;DHT22;3449;48.728;8.968;2024-03-02T07:22:48;3.80;99.90
6822;DHT22;3449;48.728;8.968;2024-03-02T07:25:15;3.80;99.90
6822;DHT22;3449;48.728;8.968;2024-03-02T07:27:42;3.80;99.90
6822;DHT22;3449;48.728;8.968;2024-03-02T07:30:13;3.80;99.90
6822;DHT22;3449;48.728;8.968;2024-03-02T07:32:41;3.80;99.90
6822;DHT22;3449;48.728;8.968;2024-03-02T07:35:11;3.80;99.90
6822;DHT22;3449;48.728;8.968;2024-03-02T07:37:38;3.80;99.90
6822;DHT22;3449;48.728;8.968;2024-03-02T07:40:06;3.90;99.90
6822;DHT22;3449;48.728;8.968;2024-03-02T07:42:36;3.90;99.90
6822;DHT22;3449;48.728;8.968;2024-03-02T07:45:04;3.90;99.90
6822;DHT22;3449;48.728;8.968;2024-03-02T07:47:33;4.00;99.90
6822;DHT22;3449;48.728;8.968;2024-03-02T07:50:00;4.00;99.90
6822;DHT22;3449;48.728;8.968;2024-03-02T07:52:27;4.00;99.90
6822;DHT22;3449;48.728;8.968;2024-03-02T07:54:54;4.00;99.90
6822;DHT22;3449;48.728;8.968;2024-03-02T07:57:21;4.10;99.90
6822;DHT22;3449;48.728;8.968;2024-03-02T07:59:48;4.30;99.90
6822;DHT22;3449;48.728;8.968;2024-03-02T08:02:15;4.40;99.90
6822;DHT22;3449;48.728;8.968;2024-03-02T08:04:44;4.50;99.90
6822;DHT22;3449;48.728;8.968;2024-03-02T08:07:12;4.70;99.90
6822;DHT22;3449;48.728;8.968;2024-03-02T08:09:39;4.90;99.90
6822;DHT22;3449;48.728;8.968;2024-03-02T08:12:06;5.20;99.90
6822;DHT22;3449;48.728;8.968;2024-03-02T08:14:34;5.40;99.90
6822;DHT22;3449;48.728;8.968;2024-03-02T08:17:00;5.60;99.90
6822;DHT22;3449;48.728;8.968;2024-03-02T08:19:28;5.90;99.90
6822;DHT22;3449;48.728;8.968;2024-03-02T08:21:56;6.10;99.90
6822;DHT22;3449;48.728;8.968;2024-03-02T08:24:25;6.20;99.90
6822;DHT22;3449;48.728;8.968;2024-03-02T08:26:51;6.40;99.90
6822;DHT22;3449;48.728;8.968;2024-03-02T08:29:18;6.50;99.90
6822;DHT22;3449;48.728;8.968;2024-03-02T08:31:45;6.60;99.90
6822;DHT22;3449;48.728;8.968;2024-03-02T08:34:12;6.90;99.90
6822;DHT22;3449;48.728;8.968;2024-03-02T08:36:39;7.10;99.90
6822;DHT22;3449;48.728;8.968;2024-03-02T08:39:07;7.20;99.90
6822;DHT22;3449;48.728;8.968;2024-03-02T08:41:41;7.40;99.90
6822;DHT22;3449;48.728;8.968;2024-03-02T08:44:08;7.30;99.90
6822;DHT22;3449;48.728;8.968;2024-03-02T08:46:35;7.50;99.90
6822;DHT22;3449;48.728;8.968;2024-03-02T08:49:01;7.70;99.90
6822;DHT22;3449;48.728;8.968;2024-03-02T08:51:28;7.80;99.90
6822;DHT22;3449;48.728;8.968;2024-03-02T08:53:56;7.70;99.90
6822;DHT22;3449;48.728;8.968;2024-03-02T08:56:25;7.60;99.90
6822;DHT22;3449;48.728;8.968;2024-03-02T08:58:52;7.60;99.90
6822;DHT22;3449;48.728;8.968;2024-03-02T09:01:19;7.60;99.90
6822;DHT22;3449;48.728;8.968;2024-03-02T09:03:46;7.80;99.90
6822;DHT22;3449;48.728;8.968;2024-03-02T09:06:14;7.90;99.90
6822;DHT22;3449;48.728;8.968;2024-03-02T09:08:42;7.80;99.90
6822;DHT22;3449;48.728;8.968;2024-03-02T09:11:09;7.80;99.90
6822;DHT22;3449;48.728;8.968;2024-03-02T09:13:38;8.10;99.90
6822;DHT22;3449;48.728;8.968;2024-03-02T09:16:05;8.50;99.90
6822;DHT22;3449;48.728;8.968;2024-03-02T09:18:32;8.80;99.90
6822;DHT22;3449;48.728;8.968;2024-03-02T09:20:59;9.10;99.90
6822;DHT22;3449;48.728;8.968;2024-03-02T09:23:26;9.40;99.90
6822;DHT22;3449;48.728;8.968;2024-03-02T09:25:53;9.70;99.90
6822;DHT22;3449;48.728;8.968;2024-03-02T09:28:20;9.90;99.90
6822;DHT22;3449;48.728;8.968;2024-03-02T09:30:48;10.00;99.90
6822;DHT22;3449;48.728;8.968;2024-03-02T09:33:15;10.20;99.90
6822;DHT22;3449;48.728;8.968;2024-03-02T09:35:42;10.20;99.90
6822;DHT22;3449;48.728;8.968;2024-03-02T09:38:08;10.20;99.90
6822;DHT22;3449;48.728;8.968;2024-03-02T09:40:36;10.60;99.90
6822;DHT22;3449;48.728;8.968;2024-03-02T09:43:03;10.80;99.90
6822;DHT22;3449;48.728;8.968;2024-03-02T09:45:30;10.70;99.90
6822;DHT22;3449;48.728;8.968;2024-03-02T09:47:58;10.90;99.90
6822;DHT22;3449;48.728;8.968;2024-03-02T09:50:26;11.00;99.90
6822;DHT22;3449;48.728;8.968;2024-03-02T09:52:53;11.30;99.90
6822;DHT22;3449;48.728;8.968;2024-03-02T09:55:20;11.60;99.90
6822;DHT22;3449;48.728;8.968;2024-03-02T09:57:47;11.90;99.90
6822;DHT22;3449;48.728;8.968;2024-03-02T10:00:15;12.20;99.90
6822;DHT22;3449;48.728;8.968;2024-03-02T10:02:42;12.10;99.90
6822;DHT22;3449;48.728;8.968;2024-03-02T10:05:11;12.40;99.90
6822;DHT22;3449;48.728;8.968;2024-03-02T10:07:38;12.60;99.90
6822;DHT22;3449;48.728;8.968;2024-03-02T10:10:15;12.90;99.90
6822;DHT22;3449;48.728;8.968;2024-03-02T10:12:42;12.90;99.90
6822;DHT22;3449;48.728;8.968;2024-03-02T10:15:09;12.70;99.90
6822;DHT22;3449;48.728;8.968;2024-03-02T10:17:36;12.70;99.90
6822;DHT22;3449;48.728;8.968;2024-03-02T10:20:24;12.90;99.90
6822;DHT22;3449;48.728;8.968;2024-03-02T10:22:51;13.20;99.90
6822;DHT22;3449;48.728;8.968;2024-03-02T10:25:31;13.30;99.90
6822;DHT22;3449;48.728;8.968;2024-03-02T10:27:58;13.50;99.90
6822;DHT22;3449;48.728;8.968;2024-03-02T10:30:26;13.80;99.90
6822;DHT22;3449;48.728;8.968;2024-03-02T10:32:53;14.10;99.90
6822;DHT22;3449;48.728;8.968;2024-03-02T10:35:23;14.60;99.90
6822;DHT22;3449;48.728;8.968;2024-03-02T10:37:52;14.50;99.90
6822;DHT22;3449;48.728;8.968;2024-03-02T10:40:21;14.60;99.90
6822;DHT22;3449;48.728;8.968;2024-03-02T10:42:49;14.80;99.90
6822;DHT22;3449;48.728;8.968;2024-03-02T10:45:17;14.80;99.90
6822;DHT22;3449;48.728;8.968;2024-03-02T10:47:47;14.90;99.90
6822;DHT22;3449;48.728;8.968;2024-03-02T10:50:14;14.90;99.90
6822;DHT22;3449;48.728;8.968;2024-03-02T10:52:42;14.90;99.90
6822;DHT22;3449;48.728;8.968;2024-03-02T10:55:09;14.70;99.90
6822;DHT22;3449;48.728;8.968;2024-03-02T10:57:41;14.80;99.90
6822;DHT22;3449;48.728;8.968;2024-03-02T11:00:12;15.10;99.90
6822;DHT22;3449;48.728;8.968;2024-03-02T11:02:45;15.40;99.90
6822;DHT22;3449;48.728;8.968;2024-03-02T11:05:18;15.20;99.90
6822;DHT22;3449;48.728;8.968;2024-03-02T11:07:50;14.90;99.90
6822;DHT22;3449;48.728;8.968;2024-03-02T11:10:18;14.80;99.90
6822;DHT22;3449;48.728;8.968;2024-03-02T11:12:53;15.20;99.90
6822;DHT22;3449;48.728;8.968;2024-03-02T11:15:25;15.50;99.90
6822;DHT22;3449;48.728;8.968;2024-03-02T11:17:54;15.80;99.90
6822;DHT22;3449;48.728;8.968;2024-03-02T11:20:21;16.00;99.90
6822;DHT22;3449;48.728;8.968;2024-03-02T11:22:50;16.30;99.90
6822;DHT22;3449;48.728;8.968;2024-03-02T11:25:24;16.20;99.90
6822;DHT22;3449;48.728;8.968;2024-03-02T11:28:02;16.30;99.90
6822;DHT22;3449;48.728;8.968;2024-03-02T11:30:49;16.20;99.90
6822;DHT22;3449;48.728;8.968;2024-03-02T11:33:26;16.50;99.90
6822;DHT22;3449;48.728;8.968;2024-03-02T11:35:56;16.70;99.30
6822;DHT22;3449;48.728;8.968;2024-03-02T11:38:28;16.50;99.90
6822;DHT22;3449;48.728;8.968;2024-03-02T11:40:56;16.40;99.90
6822;DHT22;3449;48.728;8.968;2024-03-02T11:43:25;16.10;99.50
6822;DHT22;3449;48.728;8.968;2024-03-02T11:45:57;16.10;99.90
6822;DHT22;3449;48.728;8.968;2024-03-02T11:48:25;16.10;99.90
6822;DHT22;3449;48.728;8.968;2024-03-02T11:50:52;16.10;99.90
6822;DHT22;3449;48.728;8.968;2024-03-02T11:53:20;16.00;99.60
6822;DHT22;3449;48.728;8.968;2024-03-02T11:55:49;16.10;99.90
6822;DHT22;3449;48.728;8.968;2024-03-02T11:58:16;16.30;99.90
6822;DHT22;3449;48.728;8.968;2024-03-02T12:00:46;16.30;97.70
6822;DHT22;3449;48.728;8.968;2024-03-02T12:03:14;16.50;98.10
6822;DHT22;3449;48.728;8.968;2024-03-02T12:05:42;16.90;98.60
6822;DHT22;3449;48.728;8.968;2024-03-02T12:08:10;17.10;97.30
6822;DHT22;3449;48.728;8.968;2024-03-02T12:10:37;16.70;94.00
6822;DHT22;3449;48.728;8.968;2024-03-02T12:13:06;16.70;95.70
6822;DHT22;3449;48.728;8.968;2024-03-02T12:15:37;16.50;95.30
6822;DHT22;3449;48.728;8.968;2024-03-02T12:18:05;16.20;96.10
6822;DHT22;3449;48.728;8.968;2024-03-02T12:20:33;16.40;96.10
6822;DHT22;3449;48.728;8.968;2024-03-02T12:23:01;17.10;93.90
6822;DHT22;3449;48.728;8.968;2024-03-02T12:25:30;17.70;92.10
6822;DHT22;3449;48.728;8.968;2024-03-02T12:28:00;18.20;93.20
6822;DHT22;3449;48.728;8.968;2024-03-02T12:30:30;18.30;92.20
6822;DHT22;3449;48.728;8.968;2024-03-02T12:32:57;18.50;88.20
6822;DHT22;3449;48.728;8.968;2024-03-02T12:35:24;18.60;88.30
6822;DHT22;3449;48.728;8.968;2024-03-02T12:37:53;18.40;89.60
6822;DHT22;3449;48.728;8.968;2024-03-02T12:40:20;18.40;84.90
6822;DHT22;3449;48.728;8.968;2024-03-02T12:42:48;18.20;85.00
6822;DHT22;3449;48.728;8.968;2024-03-02T12:45:16;18.00;84.50
6822;DHT22;3449;48.728;8.968;2024-03-02T12:47:51;18.20;85.60
6822;DHT22;3449;48.728;8.968;2024-03-02T12:50:18;18.40;83.80
6822;DHT22;3449;48.728;8.968;2024-03-02T12:52:51;18.50;84.00
6822;DHT22;3449;48.728;8.968;2024-03-02T12:55:20;18.40;82.80
6822;DHT22;3449;48.728;8.968;2024-03-02T12:57:49;18.50;82.10
6822;DHT22;3449;48.728;8.968;2024-03-02T13:00:18;18.40;79.20
6822;DHT22;3449;48.728;8.968;2024-03-02T13:02:46;18.70;84.10
6822;DHT22;3449;48.728;8.968;2024-03-02T13:05:15;18.70;79.20
6822;DHT22;3449;48.728;8.968;2024-03-02T13:07:42;18.40;81.70
6822;DHT22;3449;48.728;8.968;2024-03-02T13:10:10;18.60;80.90
6822;DHT22;3449;48.728;8.968;2024-03-02T13:12:38;18.70;80.30
6822;DHT22;3449;48.728;8.968;2024-03-02T13:15:06;19.00;79.80
6822;DHT22;3449;48.728;8.968;2024-03-02T13:17:34;18.90;75.50
6822;DHT22;3449;48.728;8.968;2024-03-02T13:20:03;18.80;77.70
6822;DHT22;3449;48.728;8.968;2024-03-02T13:22:34;18.90;76.50
6822;DHT22;3449;48.728;8.968;2024-03-02T13:25:01;18.60;73.30
6822;DHT22;3449;48.728;8.968;2024-03-02T13:27:29;18.10;74.80
6822;DHT22;3449;48.728;8.968;2024-03-02T13:29:56;17.50;75.30
6822;DHT22;3449;48.728;8.968;2024-03-02T13:32:24;17.00;77.30
6822;DHT22;3449;48.728;8.968;2024-03-02T13:34:51;16.80;76.20
6822;DHT22;3449;48.728;8.968;2024-03-02T13:37:19;16.50;78.20
6822;DHT22;3449;48.728;8.968;2024-03-02T13:39:47;16.20;77.40
6822;DHT22;3449;48.728;8.968;2024-03-02T13:42:14;16.00;78.90
6822;DHT22;3449;48.728;8.968;2024-03-02T13:44:43;16.00;83.40
6822;DHT22;3449;48.728;8.968;2024-03-02T13:47:11;16.10;81.50
6822;DHT22;3449;48.728;8.968;2024-03-02T13:49:38;15.70;84.70
6822;DHT22;3449;48.728;8.968;2024-03-02T13:52:09;15.60;84.60
6822;DHT22;3449;48.728;8.968;2024-03-02T13:54:38;15.50;86.20
6822;DHT22;3449;48.728;8.968;2024-03-02T13:57:07;15.40;88.20
6822;DHT22;3449;48.728;8.968;2024-03-02T13:59:35;15.30;88.70
6822;DHT22;3449;48.728;8.968;2024-03-02T14:02:03;15.40;90.00
6822;DHT22;3449;48.728;8.968;2024-03-02T14:04:31;15.50;91.00
6822;DHT22;3449;48.728;8.968;2024-03-02T14:06:58;15.60;90.60
6822;DHT22;3449;48.728;8.968;2024-03-02T14:09:25;15.70;90.50
6822;DHT22;3449;48.728;8.968;2024-03-02T14:11:52;16.10;91.00
6822;DHT22;3449;48.728;8.968;2024-03-02T14:14:21;16.60;85.70
6822;DHT22;3449;48.728;8.968;2024-03-02T14:16:48;17.10;82.60
6822;DHT22;3449;48.728;8.968;2024-03-02T14:19:15;17.50;85.10
6822;DHT22;3449;48.728;8.968;2024-03-02T14:21:42;18.00;83.00
6822;DHT22;3449;48.728;8.968;2024-03-02T14:24:09;18.50;78.80
6822;DHT22;3449;48.728;8.968;2024-03-02T14:26:36;18.90;77.90
6822;DHT22;3449;48.728;8.968;2024-03-02T14:29:03;19.00;75.30
6822;DHT22;3449;48.728;8.968;2024-03-02T14:31:32;19.10;77.70
6822;DHT22;3449;48.728;8.968;2024-03-02T14:33:59;19.30;70.90
6822;DHT22;3449;48.728;8.968;2024-03-02T14:36:26;19.40;68.90
6822;DHT22;3449;48.728;8.968;2024-03-02T14:38:53;19.30;69.10
6822;DHT22;3449;48.728;8.968;2024-03-02T14:41:21;19.30;69.70
6822;DHT22;3449;48.728;8.968;2024-03-02T14:43:49;19.50;69.20
6822;DHT22;3449;48.728;8.968;2024-03-02T14:46:16;19.50;64.60
6822;DHT22;3449;48.728;8.968;2024-03-02T14:48:45;19.60;64.50
6822;DHT22;3449;48.728;8.968;2024-03-02T14:51:13;19.00;59.90
6822;DHT22;3449;48.728;8.968;2024-03-02T14:53:40;18.60;61.90
6822;DHT22;3449;48.728;8.968;2024-03-02T14:56:07;18.50;63.10
6822;DHT22;3449;48.728;8.968;2024-03-02T14:58:34;18.00;65.30
6822;DHT22;3449;48.728;8.968;2024-03-02T15:01:03;17.50;67.90
6822;DHT22;3449;48.728;8.968;2024-03-02T15:03:30;17.10;67.50
6822;DHT22;3449;48.728;8.968;2024-03-02T15:05:58;16.40;68.00
6822;DHT22;3449;48.728;8.968;2024-03-02T15:08:25;15.70;69.90
6822;DHT22;3449;48.728;8.968;2024-03-02T15:10:52;15.50;75.00
6822;DHT22;3449;48.728;8.968;2024-03-02T15:13:21;15.20;75.90
6822;DHT22;3449;48.728;8.968;2024-03-02T15:15:48;15.10;79.90
6822;DHT22;3449;48.728;8.968;2024-03-02T15:18:14;14.80;78.50
6822;DHT22;3449;48.728;8.968;2024-03-02T15:20:41;14.80;78.70
6822;DHT22;3449;48.728;8.968;2024-03-02T15:23:10;14.70;80.90
6822;DHT22;3449;48.728;8.968;2024-03-02T15:25:35;14.70;82.60
6822;DHT22;3449;48.728;8.968;2024-03-02T15:28:03;14.60;83.10
6822;DHT22;3449;48.728;8.968;2024-03-02T15:30:29;14.60;82.80
6822;DHT22;3449;48.728;8.968;2024-03-02T15:32:56;14.40;82.10
6822;DHT22;3449;48.728;8.968;2024-03-02T15:35:23;14.40;82.50
6822;DHT22;3449;48.728;8.968;2024-03-02T15:37:50;14.40;83.60
6822;DHT22;3449;48.728;8.968;2024-03-02T15:40:18;14.30;84.20
6822;DHT22;3449;48.728;8.968;2024-03-02T15:42:45;14.30;84.20
6822;DHT22;3449;48.728;8.968;2024-03-02T15:45:12;14.20;84.80
6822;DHT22;3449;48.728;8.968;2024-03-02T15:47:39;14.20;85.60
6822;DHT22;3449;48.728;8.968;2024-03-02T15:50:06;14.20;86.70
6822;DHT22;3449;48.728;8.968;2024-03-02T15:52:33;14.10;87.00
6822;DHT22;3449;48.728;8.968;2024-03-02T15:55:00;14.00;85.90
6822;DHT22;3449;48.728;8.968;2024-03-02T15:57:28;14.00;86.20
6822;DHT22;3449;48.728;8.968;2024-03-02T15:59:55;13.90;87.90
6822;DHT22;3449;48.728;8.968;2024-03-02T16:02:22;13.80;88.40
6822;DHT22;3449;48.728;8.968;2024-03-02T16:04:49;13.80;87.50
6822;DHT22;3449;48.728;8.968;2024-03-02T16:07:17;13.70;84.40
6822;DHT22;3449;48.728;8.968;2024-03-02T16:09:44;13.50;85.20
6822;DHT22;3449;48.728;8.968;2024-03-02T16:12:10;13.50;85.30
6822;DHT22;3449;48.728;8.968;2024-03-02T16:14:39;13.40;85.20
6822;DHT22;3449;48.728;8.968;2024-03-02T16:17:06;13.40;85.80